sensor_id;sensor_type;location;lat;lon;timestamp;pressure;altitude;pressure_sealevel;temperature;humidity
64792;BME280;51226;47.504;19.074;2023-07-09T00:02:45;100647.88;;;22.64;51.17
64792;BME280;51226;47.504;19.074;2023-07-09T00:05:48;100649.69;;;22.55;51.56
64792;BME280;51226;47.504;19.074;2023-07-09T00:08:51;100654.13;;;22.52;51.96
64792;BME280;51226;47.504;19.074;2023-07-09T00:11:54;100659.47;;;22.50;52.38
64792;BME280;51226;47.504;19.074;2023-07-09T00:14:58;100646.22;;;22.44;52.63
64792;BME280;51226;47.504;19.074;2023-07-09T00:18:01;100653.34;;;22.37;53.24
64792;BME280;51226;47.504;19.074;2023-07-09T00:21:04;100660.41;;;22.42;53.30
64792;BME280;51226;47.504;19.074;2023-07-09T00:24:08;100662.19;;;22.36;53.61
64792;BME280;51226;47.504;19.074;2023-07-09T00:27:14;100657.78;;;22.37;53.72
64792;BME280;51226;47.504;19.074;2023-07-09T00:30:21;100654.19;;;22.46;53.37
64792;BME280;51226;47.504;19.074;2023-07-09T00:33:24;100648.88;;;22.44;53.41
64792;BME280;51226;47.504;19.074;2023-07-09T00:36:34;100651.56;;;22.39;53.48
64792;BME280;51226;47.504;19.074;2023-07-09T00:39:37;100656.03;;;22.30;53.96
64792;BME280;51226;47.504;19.074;2023-07-09T00:42:43;100653.38;;;22.30;53.99
64792;BME280;51226;47.504;19.074;2023-07-09T00:49:30;100659.56;;;22.32;53.39
64792;BME280;51226;47.504;19.074;2023-07-09T00:52:39;100648.97;;;22.30;53.06
64792;BME280;51226;47.504;19.074;2023-07-09T00:55:44;100646.31;;;22.29;52.93
64792;BME280;51226;47.504;19.074;2023-07-09T00:58:51;100648.09;;;22.20;53.18
64792;BME280;51226;47.504;19.074;2023-07-09T01:01:56;100644.59;;;22.15;52.85
64792;BME280;51226;47.504;19.074;2023-07-09T01:05:01;100648.16;;;22.07;52.88
64792;BME280;51226;47.504;19.074;2023-07-09T01:08:05;100647.28;;;22.11;52.26
64792;BME280;51226;47.504;19.074;2023-07-09T01:11:18;100648.16;;;22.10;51.91
64792;BME280;51226;47.504;19.074;2023-07-09T01:14:24;100648.22;;;22.00;52.15
64792;BME280;51226;47.504;19.074;2023-07-09T01:17:29;100649.16;;;21.90;52.34
64792;BME280;51226;47.504;19.074;2023-07-09T01:20:32;100645.56;;;21.96;52.24
64792;BME280;51226;47.504;19.074;2023-07-09T01:23:36;100648.25;;;21.87;52.42
64792;BME280;51226;47.504;19.074;2023-07-09T01:26:39;100652.69;;;21.88;52.43
64792;BME280;51226;47.504;19.074;2023-07-09T01:29:43;100653.59;;;21.83;52.50
64792;BME280;51226;47.504;19.074;2023-07-09T01:32:51;100646.53;;;21.79;52.78
64792;BME280;51226;47.504;19.074;2023-07-09T01:35:58;100651.75;;;21.92;52.71
64792;BME280;51226;47.504;19.074;2023-07-09T01:39:03;100657.06;;;21.93;53.08
64792;BME280;51226;47.504;19.074;2023-07-09T01:42:07;100660.66;;;21.86;53.67
64792;BME280;51226;47.504;19.074;2023-07-09T01:45:12;100653.63;;;21.79;54.06
64792;BME280;51226;47.504;19.074;2023-07-09T01:48:16;100663.38;;;21.74;54.32
64792;BME280;51226;47.504;19.074;2023-07-09T01:51:19;100667.75;;;21.78;54.32
64792;BME280;51226;47.504;19.074;2023-07-09T01:54:22;100668.69;;;21.71;54.58
64792;BME280;51226;47.504;19.074;2023-07-09T01:57:26;100671.34;;;21.71;54.85
64792;BME280;51226;47.504;19.074;2023-07-09T02:00:36;100675.72;;;21.81;54.84
64792;BME280;51226;47.504;19.074;2023-07-09T02:03:39;100675.75;;;21.75;55.17
64792;BME280;51226;47.504;19.074;2023-07-09T02:06:44;100671.28;;;21.78;55.22
64792;BME280;51226;47.504;19.074;2023-07-09T02:09:47;100678.38;;;21.75;55.33
64792;BME280;51226;47.504;19.074;2023-07-09T02:12:50;100676.66;;;21.66;55.66
64792;BME280;51226;47.504;19.074;2023-07-09T02:15:53;100676.66;;;21.68;55.61
64792;BME280;51226;47.504;19.074;2023-07-09T02:18:56;100683.75;;;21.61;55.87
64792;BME280;51226;47.504;19.074;2023-07-09T02:21:59;100682.00;;;21.57;55.91
64792;BME280;51226;47.504;19.074;2023-07-09T02:25:03;100682.88;;;21.48;56.07
64792;BME280;51226;47.504;19.074;2023-07-09T02:28:07;100684.66;;;21.49;56.08
64792;BME280;51226;47.504;19.074;2023-07-09T02:31:11;100680.22;;;21.34;56.56
64792;BME280;51226;47.504;19.074;2023-07-09T02:34:13;100679.34;;;21.27;56.87
64792;BME280;51226;47.504;19.074;2023-07-09T02:37:17;100688.19;;;21.28;56.93
64792;BME280;51226;47.504;19.074;2023-07-09T02:40:20;100682.00;;;21.24;57.15
64792;BME280;51226;47.504;19.074;2023-07-09T02:43:23;100682.88;;;21.25;57.10
64792;BME280;51226;47.504;19.074;2023-07-09T02:46:26;100677.56;;;21.25;57.16
64792;BME280;51226;47.504;19.074;2023-07-09T02:49:29;100676.72;;;21.37;56.92
64792;BME280;51226;47.504;19.074;2023-07-09T02:52:32;100677.59;;;21.33;56.92
64792;BME280;51226;47.504;19.074;2023-07-09T02:55:36;100677.56;;;21.25;56.92
64792;BME280;51226;47.504;19.074;2023-07-09T02:58:38;100682.00;;;21.21;56.77
64792;BME280;51226;47.504;19.074;2023-07-09T03:01:41;100671.41;;;21.23;56.83
64792;BME280;51226;47.504;19.074;2023-07-09T03:04:44;100686.44;;;21.19;56.89
64792;BME280;51226;47.504;19.074;2023-07-09T03:07:47;100689.09;;;21.18;56.79
64792;BME280;51226;47.504;19.074;2023-07-09T03:10:50;100682.00;;;21.18;56.58
64792;BME280;51226;47.504;19.074;2023-07-09T03:13:53;100684.66;;;21.23;56.41
64792;BME280;51226;47.504;19.074;2023-07-09T03:16:56;100690.87;;;21.23;56.32
64792;BME280;51226;47.504;19.074;2023-07-09T03:20:00;100698.84;;;21.23;56.02
64792;BME280;51226;47.504;19.074;2023-07-09T03:23:02;100702.34;;;21.22;55.91
64792;BME280;51226;47.504;19.074;2023-07-09T03:26:05;100698.81;;;21.25;55.82
64792;BME280;51226;47.504;19.074;2023-07-09T03:29:08;100698.81;;;21.28;55.84
64792;BME280;51226;47.504;19.074;2023-07-09T03:32:12;100698.81;;;21.26;55.95
64792;BME280;51226;47.504;19.074;2023-07-09T03:35:14;100697.94;;;21.27;56.14
64792;BME280;51226;47.504;19.074;2023-07-09T03:38:18;100697.06;;;21.30;56.13
64792;BME280;51226;47.504;19.074;2023-07-09T03:41:21;100703.25;;;21.32;56.25
64792;BME280;51226;47.504;19.074;2023-07-09T03:44:25;100699.69;;;21.41;56.13
64792;BME280;51226;47.504;19.074;2023-07-09T03:47:27;100707.66;;;21.53;55.47
64792;BME280;51226;47.504;19.074;2023-07-09T03:50:31;100699.69;;;21.53;55.68
64792;BME280;51226;47.504;19.074;2023-07-09T03:53:34;100698.81;;;21.53;55.74
64792;BME280;51226;47.504;19.074;2023-07-09T03:56:37;100700.59;;;21.51;55.81
64792;BME280;51226;47.504;19.074;2023-07-09T03:59:39;100705.00;;;21.55;55.74
64792;BME280;51226;47.504;19.074;2023-07-09T04:02:43;100703.22;;;21.60;55.50
64792;BME280;51226;47.504;19.074;2023-07-09T04:05:47;100697.91;;;21.64;55.48
64792;BME280;51226;47.504;19.074;2023-07-09T04:08:50;100704.06;;;21.68;55.36
64792;BME280;51226;47.504;19.074;2023-07-09T04:11:53;100703.19;;;21.71;55.54
64792;BME280;51226;47.504;19.074;2023-07-09T04:14:56;100712.03;;;21.77;55.77
64792;BME280;51226;47.504;19.074;2023-07-09T04:17:59;100700.50;;;21.83;55.86
64792;BME280;51226;47.504;19.074;2023-07-09T04:21:03;100704.00;;;21.97;55.76
64792;BME280;51226;47.504;19.074;2023-07-09T04:24:06;100709.31;;;22.02;55.55
64792;BME280;51226;47.504;19.074;2023-07-09T04:27:10;100704.81;;;22.13;55.02
64792;BME280;51226;47.504;19.074;2023-07-09T04:30:14;100703.91;;;22.17;54.64
64792;BME280;51226;47.504;19.074;2023-07-09T04:33:19;100710.12;;;22.12;54.45
64792;BME280;51226;47.504;19.074;2023-07-09T04:36:23;100709.25;;;22.13;54.12
64792;BME280;51226;47.504;19.074;2023-07-09T04:39:26;100707.44;;;22.21;53.62
64792;BME280;51226;47.504;19.074;2023-07-09T04:42:29;100709.19;;;22.31;53.22
64792;BME280;51226;47.504;19.074;2023-07-09T04:45:32;100710.06;;;22.32;53.42
64792;BME280;51226;47.504;19.074;2023-07-09T04:48:35;100718.94;;;22.34;53.47
64792;BME280;51226;47.504;19.074;2023-07-09T04:51:38;100714.50;;;22.30;53.88
64792;BME280;51226;47.504;19.074;2023-07-09T04:54:41;100710.94;;;22.28;53.74
64792;BME280;51226;47.504;19.074;2023-07-09T04:57:47;100713.66;;;22.15;54.27
64792;BME280;51226;47.504;19.074;2023-07-09T05:00:52;100715.41;;;22.23;54.17
64792;BME280;51226;47.504;19.074;2023-07-09T05:03:55;100717.12;;;22.27;54.02
64792;BME280;51226;47.504;19.074;2023-07-09T05:06:58;100720.69;;;22.35;53.21
64792;BME280;51226;47.504;19.074;2023-07-09T05:10:01;100724.25;;;22.35;53.23
64792;BME280;51226;47.504;19.074;2023-07-09T05:13:04;100723.31;;;22.38;53.06
64792;BME280;51226;47.504;19.074;2023-07-09T05:16:07;100721.53;;;22.43;52.74
64792;BME280;51226;47.504;19.074;2023-07-09T05:19:10;100718.84;;;22.48;52.93
64792;BME280;51226;47.504;19.074;2023-07-09T05:22:12;100725.09;;;22.44;53.06
64792;BME280;51226;47.504;19.074;2023-07-09T05:25:15;100718.81;;;22.52;52.88
64792;BME280;51226;47.504;19.074;2023-07-09T05:28:18;100721.41;;;22.63;52.56
64792;BME280;51226;47.504;19.074;2023-07-09T05:31:21;100723.12;;;22.72;51.88
64792;BME280;51226;47.504;19.074;2023-07-09T05:34:26;100719.59;;;22.71;51.54
64792;BME280;51226;47.504;19.074;2023-07-09T05:37:29;100724.00;;;22.75;51.99
64792;BME280;51226;47.504;19.074;2023-07-09T05:40:32;100714.13;;;22.88;51.44
64792;BME280;51226;47.504;19.074;2023-07-09T05:43:35;100710.56;;;22.94;51.13
64792;BME280;51226;47.504;19.074;2023-07-09T05:46:41;100718.44;;;23.05;50.96
64792;BME280;51226;47.504;19.074;2023-07-09T05:49:44;100723.66;;;23.22;50.11
64792;BME280;51226;47.504;19.074;2023-07-09T05:52:48;100720.12;;;23.23;49.94
64792;BME280;51226;47.504;19.074;2023-07-09T05:55:55;100720.91;;;23.33;49.67
64792;BME280;51226;47.504;19.074;2023-07-09T05:58:59;100721.75;;;23.38;50.12
64792;BME280;51226;47.504;19.074;2023-07-09T06:02:03;100717.16;;;23.54;49.29
64792;BME280;51226;47.504;19.074;2023-07-09T06:05:06;100723.28;;;23.60;49.31
64792;BME280;51226;47.504;19.074;2023-07-09T06:08:13;100724.00;;;23.79;48.25
64792;BME280;51226;47.504;19.074;2023-07-09T06:11:17;100718.25;;;24.16;45.54
64792;BME280;51226;47.504;19.074;2023-07-09T06:14:22;100717.97;;;24.38;45.34
64792;BME280;51226;47.504;19.074;2023-07-09T06:17:26;100718.87;;;24.37;46.28
64792;BME280;51226;47.504;19.074;2023-07-09T06:20:28;100717.78;;;24.50;45.95
64792;BME280;51226;47.504;19.074;2023-07-09T06:23:31;100720.06;;;24.81;44.35
64792;BME280;51226;47.504;19.074;2023-07-09T06:26:35;100721.59;;;24.98;45.09
64792;BME280;51226;47.504;19.074;2023-07-09T06:29:38;100710.34;;;25.33;42.97
64792;BME280;51226;47.504;19.074;2023-07-09T06:32:41;100717.84;;;25.59;41.66
64792;BME280;51226;47.504;19.074;2023-07-09T06:35:54;100717.44;;;25.81;41.41
64792;BME280;51226;47.504;19.074;2023-07-09T06:38:57;100710.66;;;26.11;40.57
64792;BME280;51226;47.504;19.074;2023-07-09T06:42:00;100704.28;;;26.56;39.03
64792;BME280;51226;47.504;19.074;2023-07-09T06:45:06;100701.13;;;26.77;38.85
64792;BME280;51226;47.504;19.074;2023-07-09T06:48:09;100706.22;;;26.90;38.34
64792;BME280;51226;47.504;19.074;2023-07-09T06:51:12;100700.41;;;27.08;38.63
64792;BME280;51226;47.504;19.074;2023-07-09T06:54:15;100700.88;;;27.24;39.11
64792;BME280;51226;47.504;19.074;2023-07-09T06:57:18;100697.63;;;27.47;38.90
64792;BME280;51226;47.504;19.074;2023-07-09T07:00:21;100706.12;;;27.63;37.95
64792;BME280;51226;47.504;19.074;2023-07-09T07:03:24;100703.88;;;27.79;37.70
64792;BME280;51226;47.504;19.074;2023-07-09T07:06:27;100708.88;;;27.91;37.81
64792;BME280;51226;47.504;19.074;2023-07-09T07:09:30;100713.84;;;28.07;37.30
64792;BME280;51226;47.504;19.074;2023-07-09T07:12:42;100712.31;;;28.28;36.73
64792;BME280;51226;47.504;19.074;2023-07-09T07:15:48;100715.59;;;28.38;36.63
64792;BME280;51226;47.504;19.074;2023-07-09T07:18:52;100711.16;;;28.67;36.40
64792;BME280;51226;47.504;19.074;2023-07-09T07:21:55;100714.81;;;28.92;35.52
64792;BME280;51226;47.504;19.074;2023-07-09T07:24:58;100711.50;;;29.11;34.67
64792;BME280;51226;47.504;19.074;2023-07-09T07:28:00;100710.84;;;29.04;34.84
64792;BME280;51226;47.504;19.074;2023-07-09T07:31:06;100704.00;;;29.22;35.07
64792;BME280;51226;47.504;19.074;2023-07-09T07:34:12;100700.78;;;29.63;33.97
64792;BME280;51226;47.504;19.074;2023-07-09T07:37:18;100701.31;;;29.98;34.09
64792;BME280;51226;47.504;19.074;2023-07-09T07:40:22;100698.50;;;30.24;34.60
64792;BME280;51226;47.504;19.074;2023-07-09T07:43:25;100702.41;;;30.63;34.63
64792;BME280;51226;47.504;19.074;2023-07-09T07:46:28;100699.69;;;31.07;32.51
64792;BME280;51226;47.504;19.074;2023-07-09T07:49:32;100697.59;;;31.56;30.91
64792;BME280;51226;47.504;19.074;2023-07-09T07:52:34;100698.97;;;31.86;30.59
64792;BME280;51226;47.504;19.074;2023-07-09T07:55:41;100695.75;;;32.17;29.99
64792;BME280;51226;47.504;19.074;2023-07-09T07:58:44;100697.94;;;32.66;29.38
64792;BME280;51226;47.504;19.074;2023-07-09T08:01:49;100702.03;;;32.92;29.24
64792;BME280;51226;47.504;19.074;2023-07-09T08:04:52;100696.22;;;33.36;27.67
64792;BME280;51226;47.504;19.074;2023-07-09T08:07:56;100696.66;;;33.62;28.05
64792;BME280;51226;47.504;19.074;2023-07-09T08:11:03;100686.16;;;34.07;26.51
64792;BME280;51226;47.504;19.074;2023-07-09T08:14:08;100692.91;;;34.31;27.05
64792;BME280;51226;47.504;19.074;2023-07-09T08:17:11;100685.59;;;34.49;26.96
64792;BME280;51226;47.504;19.074;2023-07-09T08:20:15;100693.53;;;34.68;26.32
64792;BME280;51226;47.504;19.074;2023-07-09T08:23:18;100699.34;;;35.09;25.79
64792;BME280;51226;47.504;19.074;2023-07-09T08:26:21;100694.34;;;35.47;25.11
64792;BME280;51226;47.504;19.074;2023-07-09T08:33:19;100698.19;;;36.02;23.97
64792;BME280;51226;47.504;19.074;2023-07-09T08:36:23;100693.06;;;36.53;21.38
64792;BME280;51226;47.504;19.074;2023-07-09T08:39:26;100688.94;;;37.15;19.57
64792;BME280;51226;47.504;19.074;2023-07-09T08:42:37;100683.34;;;37.44;20.08
64792;BME280;51226;47.504;19.074;2023-07-09T08:46:12;100688.28;;;37.90;19.88
64792;BME280;51226;47.504;19.074;2023-07-09T08:50:02;100688.72;;;38.47;20.18
64792;BME280;51226;47.504;19.074;2023-07-09T08:56:41;100674.16;;;39.43;18.63
64792;BME280;51226;47.504;19.074;2023-07-09T08:59:45;100689.81;;;39.86;17.94
64792;BME280;51226;47.504;19.074;2023-07-09T09:02:52;100675.19;;;40.21;17.79
64792;BME280;51226;47.504;19.074;2023-07-09T09:24:30;100673.84;;;42.37;15.54
64792;BME280;51226;47.504;19.074;2023-07-09T09:27:34;100678.97;;;42.81;14.26
64792;BME280;51226;47.504;19.074;2023-07-09T09:38:11;100681.94;;;43.66;14.07
64792;BME280;51226;47.504;19.074;2023-07-09T09:41:23;100681.44;;;43.80;13.72
64792;BME280;51226;47.504;19.074;2023-07-09T09:45:44;100672.00;;;43.93;13.96
64792;BME280;51226;47.504;19.074;2023-07-09T10:07:33;100664.63;;;44.85;12.67
64792;BME280;51226;47.504;19.074;2023-07-09T10:10:39;100653.31;;;45.32;11.85
64792;BME280;51226;47.504;19.074;2023-07-09T10:13:47;100658.19;;;45.38;12.49
64792;BME280;51226;47.504;19.074;2023-07-09T10:16:56;100656.19;;;45.48;12.31
64792;BME280;51226;47.504;19.074;2023-07-09T10:23:28;100653.72;;;45.37;12.07
64792;BME280;51226;47.504;19.074;2023-07-09T10:26:39;100662.19;;;45.26;11.99
64792;BME280;51226;47.504;19.074;2023-07-09T10:30:01;100659.66;;;45.32;12.10
64792;BME280;51226;47.504;19.074;2023-07-09T10:33:48;100651.69;;;45.21;12.20
64792;BME280;51226;47.504;19.074;2023-07-09T10:40:21;100652.38;;;45.76;11.57
64792;BME280;51226;47.504;19.074;2023-07-09T10:43:35;100647.25;;;45.28;12.13
64792;BME280;51226;47.504;19.074;2023-07-09T10:46:40;100649.19;;;45.10;12.21
64792;BME280;51226;47.504;19.074;2023-07-09T10:49:46;100655.13;;;45.41;12.25
64792;BME280;51226;47.504;19.074;2023-07-09T10:52:50;100642.81;;;44.10;12.57
64792;BME280;51226;47.504;19.074;2023-07-09T10:56:10;100640.63;;;43.48;14.06
64792;BME280;51226;47.504;19.074;2023-07-09T11:02:31;100632.28;;;41.30;14.31
64792;BME280;51226;47.504;19.074;2023-07-09T11:05:34;100635.50;;;41.97;13.83
64792;BME280;51226;47.504;19.074;2023-07-09T11:08:39;100634.34;;;42.69;13.13
64792;BME280;51226;47.504;19.074;2023-07-09T11:11:46;100642.09;;;43.42;12.81
64792;BME280;51226;47.504;19.074;2023-07-09T11:14:56;100641.13;;;43.81;12.41
64792;BME280;51226;47.504;19.074;2023-07-09T11:18:05;100646.72;;;44.17;12.86
64792;BME280;51226;47.504;19.074;2023-07-09T11:21:17;100634.97;;;44.43;12.31
64792;BME280;51226;47.504;19.074;2023-07-09T11:24:33;100640.13;;;44.00;13.17
64792;BME280;51226;47.504;19.074;2023-07-09T11:27:54;100624.66;;;42.65;13.88
64792;BME280;51226;47.504;19.074;2023-07-09T11:31:20;100621.41;;;40.65;14.31
64792;BME280;51226;47.504;19.074;2023-07-09T11:34:27;100611.66;;;40.72;14.82
64792;BME280;51226;47.504;19.074;2023-07-09T11:37:30;100615.50;;;41.02;14.65
64792;BME280;51226;47.504;19.074;2023-07-09T11:40:34;100612.25;;;41.08;15.48
64792;BME280;51226;47.504;19.074;2023-07-09T11:43:47;100616.34;;;40.06;15.80
64792;BME280;51226;47.504;19.074;2023-07-09T11:53:35;100607.84;;;38.59;16.82
64792;BME280;51226;47.504;19.074;2023-07-09T11:56:40;100605.94;;;38.72;16.81
64792;BME280;51226;47.504;19.074;2023-07-09T11:59:43;100601.72;;;39.50;16.30
64792;BME280;51226;47.504;19.074;2023-07-09T12:02:46;100600.03;;;39.93;16.07
64792;BME280;51226;47.504;19.074;2023-07-09T12:05:55;100593.94;;;40.23;15.83
64792;BME280;51226;47.504;19.074;2023-07-09T12:08:58;100602.84;;;40.36;15.58
64792;BME280;51226;47.504;19.074;2023-07-09T12:12:01;100606.44;;;40.48;15.52
64792;BME280;51226;47.504;19.074;2023-07-09T12:15:31;100595.84;;;40.55;15.16
64792;BME280;51226;47.504;19.074;2023-07-09T12:18:38;100595.22;;;40.51;14.80
64792;BME280;51226;47.504;19.074;2023-07-09T12:21:43;100583.44;;;40.83;15.30
64792;BME280;51226;47.504;19.074;2023-07-09T12:24:49;100585.09;;;40.96;15.23
64792;BME280;51226;47.504;19.074;2023-07-09T12:27:53;100583.34;;;41.16;15.41
64792;BME280;51226;47.504;19.074;2023-07-09T12:30:57;100587.28;;;41.02;14.97
64792;BME280;51226;47.504;19.074;2023-07-09T12:34:00;100582.63;;;40.81;15.23
64792;BME280;51226;47.504;19.074;2023-07-09T12:37:03;100575.81;;;40.54;15.18
64792;BME280;51226;47.504;19.074;2023-07-09T12:40:13;100571.75;;;40.49;15.19
64792;BME280;51226;47.504;19.074;2023-07-09T12:43:23;100562.94;;;40.66;15.63
64792;BME280;51226;47.504;19.074;2023-07-09T12:46:27;100557.81;;;40.73;15.43
64792;BME280;51226;47.504;19.074;2023-07-09T12:49:38;100555.78;;;40.86;15.42
64792;BME280;51226;47.504;19.074;2023-07-09T12:52:46;100562.84;;;40.89;15.12
64792;BME280;51226;47.504;19.074;2023-07-09T12:55:50;100552.47;;;40.71;15.35
64792;BME280;51226;47.504;19.074;2023-07-09T12:58:57;100555.13;;;40.41;15.25
64792;BME280;51226;47.504;19.074;2023-07-09T13:02:06;100559.88;;;40.38;15.73
64792;BME280;51226;47.504;19.074;2023-07-09T13:05:21;100547.94;;;40.28;15.98
64792;BME280;51226;47.504;19.074;2023-07-09T13:08:29;100544.25;;;40.18;16.43
64792;BME280;51226;47.504;19.074;2023-07-09T13:11:34;100549.41;;;40.32;15.78
64792;BME280;51226;47.504;19.074;2023-07-09T13:14:38;100544.56;;;39.81;16.23
64792;BME280;51226;47.504;19.074;2023-07-09T13:17:42;100529.31;;;39.10;16.24
64792;BME280;51226;47.504;19.074;2023-07-09T13:20:47;100536.72;;;38.97;17.27
64792;BME280;51226;47.504;19.074;2023-07-09T13:23:52;100532.75;;;38.90;16.92
64792;BME280;51226;47.504;19.074;2023-07-09T13:26:55;100529.28;;;38.88;17.06
64792;BME280;51226;47.504;19.074;2023-07-09T13:30:01;100532.00;;;38.88;17.28
64792;BME280;51226;47.504;19.074;2023-07-09T13:33:08;100527.03;;;38.93;17.34
64792;BME280;51226;47.504;19.074;2023-07-09T13:36:12;100523.69;;;39.01;16.23
64792;BME280;51226;47.504;19.074;2023-07-09T13:39:16;100529.38;;;38.98;16.34
64792;BME280;51226;47.504;19.074;2023-07-09T13:42:19;100531.38;;;38.96;15.77
64792;BME280;51226;47.504;19.074;2023-07-09T13:45:24;100526.44;;;38.89;15.76
64792;BME280;51226;47.504;19.074;2023-07-09T13:48:27;100526.72;;;38.62;16.63
64792;BME280;51226;47.504;19.074;2023-07-09T13:51:32;100529.03;;;38.07;16.51
64792;BME280;51226;47.504;19.074;2023-07-09T13:54:35;100526.97;;;37.74;16.93
64792;BME280;51226;47.504;19.074;2023-07-09T14:01:17;100523.12;;;37.01;18.47
64792;BME280;51226;47.504;19.074;2023-07-09T14:04:21;100525.25;;;36.57;18.99
64792;BME280;51226;47.504;19.074;2023-07-09T14:11:10;100514.38;;;36.57;18.99
64792;BME280;51226;47.504;19.074;2023-07-09T14:14:18;100513.94;;;36.50;19.06
64792;BME280;51226;47.504;19.074;2023-07-09T14:17:22;100508.50;;;36.23;19.20
64792;BME280;51226;47.504;19.074;2023-07-09T14:20:26;100514.84;;;36.09;19.60
64792;BME280;51226;47.504;19.074;2023-07-09T14:23:28;100514.06;;;35.80;19.82
64792;BME280;51226;47.504;19.074;2023-07-09T14:26:32;100519.53;;;35.51;20.25
64792;BME280;51226;47.504;19.074;2023-07-09T14:29:35;100520.50;;;35.07;20.93
64792;BME280;51226;47.504;19.074;2023-07-09T14:32:38;100519.19;;;34.84;20.96
64792;BME280;51226;47.504;19.074;2023-07-09T14:35:44;100512.72;;;34.56;21.04
64792;BME280;51226;47.504;19.074;2023-07-09T14:38:49;100513.91;;;34.36;21.14
64792;BME280;51226;47.504;19.074;2023-07-09T14:41:52;100511.09;;;34.68;21.62
64792;BME280;51226;47.504;19.074;2023-07-09T14:44:55;100518.72;;;34.77;21.69
64792;BME280;51226;47.504;19.074;2023-07-09T14:47:58;100517.41;;;34.68;21.43
64792;BME280;51226;47.504;19.074;2023-07-09T14:51:04;100517.12;;;34.43;21.81
64792;BME280;51226;47.504;19.074;2023-07-09T14:54:24;100515.94;;;34.32;22.46
64792;BME280;51226;47.504;19.074;2023-07-09T14:57:28;100503.59;;;34.43;22.23
64792;BME280;51226;47.504;19.074;2023-07-09T15:00:32;100505.44;;;34.42;21.88
64792;BME280;51226;47.504;19.074;2023-07-09T15:03:35;100494.78;;;34.39;21.85
64792;BME280;51226;47.504;19.074;2023-07-09T15:06:38;100485.69;;;34.40;22.07
64792;BME280;51226;47.504;19.074;2023-07-09T15:09:41;100497.31;;;34.42;22.05
64792;BME280;51226;47.504;19.074;2023-07-09T15:12:46;100495.00;;;34.50;21.66
64792;BME280;51226;47.504;19.074;2023-07-09T15:15:49;100492.03;;;34.55;21.43
64792;BME280;51226;47.504;19.074;2023-07-09T15:18:52;100490.31;;;34.38;21.70
64792;BME280;51226;47.504;19.074;2023-07-09T15:21:55;100494.09;;;34.36;21.85
64792;BME280;51226;47.504;19.074;2023-07-09T15:24:58;100498.91;;;34.30;21.91
64792;BME280;51226;47.504;19.074;2023-07-09T15:28:01;100489.22;;;34.10;21.45
64792;BME280;51226;47.504;19.074;2023-07-09T15:31:03;100489.28;;;33.78;21.92
64792;BME280;51226;47.504;19.074;2023-07-09T15:34:09;100494.25;;;33.70;22.28
64792;BME280;51226;47.504;19.074;2023-07-09T15:37:13;100492.47;;;33.53;22.66
64792;BME280;51226;47.504;19.074;2023-07-09T15:40:23;100502.06;;;33.59;22.47
64792;BME280;51226;47.504;19.074;2023-07-09T15:43:28;100484.78;;;33.46;23.02
64792;BME280;51226;47.504;19.074;2023-07-09T15:46:33;100489.81;;;33.36;23.29
64792;BME280;51226;47.504;19.074;2023-07-09T15:49:37;100490.75;;;33.19;23.57
64792;BME280;51226;47.504;19.074;2023-07-09T15:52:40;100491.50;;;33.05;23.41
64792;BME280;51226;47.504;19.074;2023-07-09T15:55:43;100487.19;;;33.01;23.02
64792;BME280;51226;47.504;19.074;2023-07-09T15:58:46;100487.63;;;32.93;23.48
64792;BME280;51226;47.504;19.074;2023-07-09T16:01:49;100489.06;;;32.83;23.39
64792;BME280;51226;47.504;19.074;2023-07-09T16:04:52;100484.31;;;32.53;24.21
64792;BME280;51226;47.504;19.074;2023-07-09T16:07:57;100489.16;;;32.46;24.35
64792;BME280;51226;47.504;19.074;2023-07-09T16:11:26;100478.81;;;32.37;24.60
64792;BME280;51226;47.504;19.074;2023-07-09T16:14:30;100481.84;;;32.48;23.90
64792;BME280;51226;47.504;19.074;2023-07-09T16:17:34;100475.97;;;32.23;24.63
64792;BME280;51226;47.504;19.074;2023-07-09T16:20:37;100471.97;;;32.30;24.83
64792;BME280;51226;47.504;19.074;2023-07-09T16:23:40;100481.72;;;32.32;24.35
64792;BME280;51226;47.504;19.074;2023-07-09T16:26:43;100480.94;;;32.13;25.02
64792;BME280;51226;47.504;19.074;2023-07-09T16:29:46;100477.19;;;32.16;24.55
64792;BME280;51226;47.504;19.074;2023-07-09T16:32:49;100476.59;;;31.91;24.65
64792;BME280;51226;47.504;19.074;2023-07-09T16:35:53;100476.59;;;31.91;24.83
64792;BME280;51226;47.504;19.074;2023-07-09T16:38:56;100478.88;;;31.82;24.96
64792;BME280;51226;47.504;19.074;2023-07-09T16:41:59;100479.44;;;31.88;25.12
64792;BME280;51226;47.504;19.074;2023-07-09T16:45:02;100477.09;;;31.81;25.29
64792;BME280;51226;47.504;19.074;2023-07-09T16:48:17;100482.31;;;31.66;25.50
64792;BME280;51226;47.504;19.074;2023-07-09T16:51:19;100477.28;;;31.58;25.46
64792;BME280;51226;47.504;19.074;2023-07-09T16:54:23;100479.69;;;31.65;25.46
64792;BME280;51226;47.504;19.074;2023-07-09T16:57:29;100479.53;;;31.68;25.47
64792;BME280;51226;47.504;19.074;2023-07-09T17:00:35;100479.31;;;31.53;25.74
64792;BME280;51226;47.504;19.074;2023-07-09T17:03:38;100477.06;;;31.44;25.89
64792;BME280;51226;47.504;19.074;2023-07-09T17:06:42;100476.97;;;31.27;26.10
64792;BME280;51226;47.504;19.074;2023-07-09T17:09:44;100484.31;;;31.23;26.17
64792;BME280;51226;47.504;19.074;2023-07-09T17:12:54;100482.13;;;31.31;25.76
64792;BME280;51226;47.504;19.074;2023-07-09T17:16:13;100484.09;;;31.28;25.64
64792;BME280;51226;47.504;19.074;2023-07-09T17:19:16;100481.03;;;31.16;25.86